Airfield :
LOGIN :

Register | Disclaimer

   EN    FR    IT 

 










Legend :    VFR   Marginal VFR   IFR   Intensive IFR   Very Intensive IFR
Visi :
Ceiling :
>= 8 km
>= 3000ft
5 to 8 km
1000 to 3000 ft
1500m to 5 km
500 to 1000 ft
800 to 1500m
200 to 500 ft
< 800m
< 200 ft
Symbols :   Thunderstorms  Fog  Heavy snow  Heavy precipitations  Wind > 20 kt
SIGMETs :     Misc.  Thunderstorms  Icing  Turbulence  Mountain Waves  Volcanic Ashes






- Airport Elevation : 3006 ft
- IATA code : LEN


LELN - Leon

CURRENT METAR :
  • 192200Z AUTO 36004KT 9999 BKN059 09/06 Q1016

EXPIRED METARs :
  • 192130Z AUTO 36004KT 9999 BKN048 BKN056 09/07 Q1016
  • 192100Z AUTO 03003KT 330V080 9999 BKN050 10/07 Q1016
  • 192030Z AUTO 36004KT 340V070 9999 BKN050 10/07 Q1016
  • 192000Z AUTO 01003KT 320V050 9999 SCT050 10/07 Q1016
  • 191930Z AUTO 02005KT 350V060 9999 OVC048 10/07 Q1016

TAF TAF LELN
Valid from the 19 at 21:00 until the 20 at 21:00 UTC


192000Z 1921/2021 VRB03KT 9999 SCT035 TX16/2015Z TN05/2005Z
PROB40
TEMPO 1921/1923 4000 SHRA SCT035CB
PROB30
TEMPO 1921/1922 27010KT TSRA FEW035CB
PROB40
TEMPO 1921/2008 4000 RA BKN010
PROB40
TEMPO 2012/2020 3500 SHRA SCT035CB
PROB30
TEMPO 2013/2019 03010KT TSRA SCT035CB



MET'MAP, your aeronautical weather chart ! - Copyright ORBIFLY December 2007 - Disclaimer

ORBIFLY MET'MAP TEAM :

Programming & Development : Alexandra Zaïnal
Concept & original design : Baudouin d'Aumeries
Assistance for programming : Marc-Olivier Méhu
Technical & hardware support : Manuel Goepfert

Contact : metmap@orbifly.com




SOURCES & CREDITS :

   NOAA